Data for 07/13/2006

Time Sea-Level Adjusted Pressure Absolute Pressure Temperature Relative Humidity Dew Point   
(mb) (inHg) (mb) (inHg) (C) (F) (%) (C) (F)
00:05 1020 30.12 849 25.07 13.1 55.6 92 11.9 53.4
00:10 1020 30.12 849 25.07 13 55.4 91 11.6 52.9
00:15 1020 30.12 849 25.07 13.1 55.6 90 11.5 52.7
00:20 1020 30.12 849 25.07 13.4 56.1 88 11.4 52.5
00:25 1019 30.09 849 25.07 13.5 56.3 87 11.4 52.5
00:30 1019 30.09 849 25.07 13.4 56.1 88 11.5 52.7
00:35 1019 30.09 849 25.07 13.5 56.3 83 10.6 51.2
00:40 1019 30.09 849 25.07 13.9 57 79 10.3 50.6
00:45 1019 30.09 848 25.04 14.1 57.4 74 9.6 49.3
00:50 1019 30.09 848 25.04 14.3 57.7 73 9.4 49
00:55 1019 30.09 848 25.04 14.2 57.6 73 9.5 49.2
01:00 1019 30.09 848 25.04 14.3 57.7 72 9.3 48.8
01:05 1019 30.09 848 25.04 14.2 57.5 74 9.6 49.2
01:10 1019 30.09 848 25.04 13.9 57 78 10.2 50.4
01:15 1019 30.09 848 25.04 13.7 56.6 77 9.8 49.6
01:20 1019 30.09 848 25.04 13.5 56.3 76 9.5 49.1
01:25 1019 30.09 848 25.04 13.6 56.4 76 9.5 49.1
01:30 1019 30.09 848 25.04 13.7 56.6 72 8.6 47.6
01:35 1019 30.09 848 25.04 13.6 56.5 74 9.2 48.5
01:40 1019 30.09 848 25.04 13.5 56.3 71 8.3 46.9
01:45 1019 30.09 848 25.04 13.5 56.3 78 9.7 49.5
01:50 1019 30.09 848 25.04 13.1 55.5 77 9.3 48.7
01:55 1019 30.09 848 25.04 13 55.5 78 9.4 48.9
02:00 1019 30.09 848 25.04 13.2 55.7 78 9.4 48.9
02:05 1019 30.09 848 25.04 13.2 55.7 77 9.2 48.6
02:10 1019 30.09 848 25.04 13.1 55.5 80 9.6 49.3
02:15 1019 30.09 849 25.07 12.9 55.3 82 10 50
02:20 1020 30.12 849 25.07 12.6 54.7 81 9.4 49
02:25 1020 30.12 849 25.07 12.7 54.9 79 9.1 48.5
02:30 1020 30.12 849 25.07 12.8 55.1 78 9.1 48.3
02:35 1020 30.12 849 25.07 12.8 55.1 79 9.2 48.6
02:40 1020 30.12 849 25.07 12.8 55 79 9.3 48.7
02:45 1020 30.12 849 25.07 12.7 54.9 79 9.3 48.7
02:50 1020 30.12 849 25.07 12.8 55 80 9.4 48.9
02:55 1020 30.12 850 25.1 12.8 55 82 9.7 49.5
03:00 1020 30.12 850 25.1 12.6 54.7 81 9.5 49.1
03:05 1020 30.12 850 25.1 13.2 55.7 69 7.7 45.8
03:10 1020 30.12 849 25.07 13.9 57 67 8 46.4
03:15 1020 30.12 849 25.07 13.9 57.1 70 8.6 47.4
03:20 1020 30.12 849 25.07 13.8 56.8 74 9.2 48.5
03:25 1020 30.12 849 25.07 13.4 56.1 79 9.9 49.8
03:30 1020 30.12 849 25.07 13.2 55.7 78 9.4 49
03:35 1020 30.12 849 25.07 13.1 55.6 80 9.8 49.6
03:40 1020 30.12 849 25.07 12.6 54.6 83 9.9 49.7
03:45 1020 30.12 849 25.07 12.2 54 83 9.4 48.9
03:50 1020 30.12 849 25.07 12.4 54.2 81 9.2 48.5
03:55 1020 30.12 849 25.07 12.5 54.5 80 9.2 48.6
04:00 1020 30.12 849 25.07 12.6 54.6 83 9.7 49.5
04:05 1020 30.12 849 25.07 12 53.7 85 9.7 49.4
04:10 1020 30.12 849 25.07 12 53.6 81 8.9 48.1
04:15 1020 30.12 849 25.07 11.8 53.2 83 9 48.3
04:20 1020 30.12 849 25.07 11.7 53 83 8.9 48
04:25 1020 30.12 849 25.07 11.6 52.8 84 8.9 48.1
04:30 1020 30.12 849 25.07 11.5 52.7 83 8.7 47.7
04:35 1020 30.12 849 25.07 11.5 52.8 85 9 48.3
04:40 1020 30.12 849 25.07 11.2 52.2 85 8.8 47.9
04:45 1020 30.12 849 25.07 10.9 51.6 85 8.5 47.3
04:50 1020 30.12 849 25.07 10.9 51.5 85 8.5 47.2
04:55 1020 30.12 849 25.07 10.8 51.4 85 8.3 47
05:00 1020 30.12 849 25.07 10.8 51.4 85 8.3 46.9
05:05 1020 30.12 850 25.1 10.6 51.2 85 8.3 46.9
05:10 1020 30.12 850 25.1 10.4 50.6 87 8.2 46.8
05:15 1021 30.15 850 25.1 10 50.1 87 7.9 46.3
05:20 1021 30.15 850 25.1 10.1 50.3 86 8 46.4
05:25 1021 30.15 850 25.1 9.9 49.8 87 7.8 46
05:30 1021 30.15 850 25.1 9.9 49.8 86 7.7 45.9
05:35 1021 30.15 850 25.1 9.9 49.7 86 7.7 45.9
05:40 1021 30.15 850 25.1 10.2 50.4 84 7.6 45.7
05:45 1021 30.15 850 25.1 10.3 50.5 83 7.6 45.6
05:50 1021 30.15 850 25.1 10.3 50.6 83 7.6 45.7
05:55 1021 30.15 850 25.1 10.2 50.3 84 7.6 45.7
06:00 1021 30.15 850 25.1 10 50 86 7.7 45.8
06:05 1021 30.15 850 25.1 10 50 86 7.7 45.9
06:10 1021 30.15 850 25.1 10 50 86 7.7 45.9
06:15 1021 30.15 850 25.1 10 49.9 86 7.8 46
06:20 1021 30.15 850 25.1 10 50 85 7.7 45.8
06:25 1021 30.15 850 25.1 10.1 50.1 85 7.7 45.8
06:30 1021 30.15 850 25.1 10.3 50.5 84 7.7 45.9
06:35 1021 30.15 850 25.1 10.6 51.1 83 7.8 46.1
06:40 1021 30.15 850 25.1 10.6 51.2 83 7.9 46.2
06:45 1021 30.15 850 25.1 10.8 51.4 83 8 46.4
06:50 1021 30.15 850 25.1 11.1 51.9 82 8.1 46.7
06:55 1021 30.15 850 25.1 11.4 52.6 81 8.2 46.8
07:00 1021 30.15 850 25.1 11.8 53.2 80 8.5 47.3
07:05 1021 30.15 850 25.1 11.7 53 83 8.8 47.9
07:10 1021 30.15 850 25.1 11.3 52.3 83 8.5 47.3
07:15 1021 30.15 850 25.1 11.2 52.2 83 8.4 47.2
07:20 1021 30.15 850 25.1 11.3 52.4 83 8.6 47.4
07:25 1021 30.15 850 25.1 11.4 52.5 84 8.7 47.7
07:30 1021 30.15 850 25.1 11.5 52.7 82 8.6 47.4
07:35 1021 30.15 850 25.1 12.1 53.7 80 8.7 47.7
07:40 1021 30.15 850 25.1 12.8 55 78 9 48.1
07:45 1021 30.15 850 25.1 13.2 55.8 76 9.1 48.4
07:50 1021 30.15 850 25.1 13.6 56.5 74 9.1 48.4
07:55 1021 30.15 850 25.1 13.4 56.1 78 9.7 49.5
08:00 1021 30.15 850 25.1 13.8 56.8 75 9.5 49
08:05 1021 30.15 850 25.1 14.2 57.6 74 9.8 49.6
08:10 1021 30.15 850 25.1 14.5 58.2 73 9.7 49.5
08:15 1021 30.15 850 25.1 15.2 59.4 70 9.8 49.6
08:20 1021 30.15 850 25.1 15.5 59.9 71 10.2 50.4
08:25 1021 30.15 850 25.1 15.9 60.7 67 9.9 49.9
08:30 1021 30.15 850 25.1 16.1 60.9 65 9.5 49.1
08:35 1021 30.15 850 25.1 16.5 61.6 62 9.3 48.8
08:40 1021 30.15 850 25.1 16.6 61.9 60 8.9 48.1
08:45 1021 30.15 850 25.1 16.9 62.5 60 9.2 48.6
08:50 1021 30.15 850 25.1 17.5 63.5 57 8.9 48
08:55 1021 30.15 850 25.1 17.8 64.1 58 9.6 49.2
09:00 1021 30.15 850 25.1 17.8 64 54 8.6 47.4
09:05 1021 30.15 850 25.1 17.5 63.4 57 8.9 48.1
09:10 1021 30.15 850 25.1 17.7 63.9 57 9.1 48.4
09:15 1021 30.15 850 25.1 17.4 63.3 56 8.6 47.5
09:20 1021 30.15 851 25.13 17.7 63.9 52 7.8 46
09:25 1021 30.15 851 25.13 17.6 63.8 51 7.6 45.7
09:30 1021 30.15 851 25.13 17.6 63.6 52 7.7 45.9
09:35 1021 30.15 851 25.13 17.7 63.9 50 7.4 45.3
09:40 1021 30.15 851 25.13 17.7 63.9 52 7.8 46
09:45 1021 30.15 851 25.13 18.1 64.6 50 7.7 45.9
09:50 1021 30.15 851 25.13 18.1 64.7 48 7.1 44.8
09:55 1021 30.15 851 25.13 18.7 65.7 46 7 44.6
10:00 1021 30.15 851 25.13 18.5 65.3 48 7.5 45.6
10:05 1021 30.15 851 25.13 18.8 65.9 49 8 46.5
10:10 1021 30.15 851 25.13 19.3 66.8 48 8.2 46.7
10:15 1021 30.15 851 25.13 18.3 64.9 48 7.3 45.1
10:20 1021 30.15 851 25.13 19.3 66.7 45 7.1 44.8
10:25 1021 30.15 851 25.13 19.2 66.5 45 7 44.6
10:30 1021 30.15 850 25.1 19.2 66.5 46 7.3 45.2
10:35 1021 30.15 850 25.1 19.8 67.7 43 7.1 44.8
10:40 1021 30.15 850 25.1 20.8 69.4 43 8 46.4
10:45 1021 30.15 850 25.1 20.9 69.6 43 8.2 46.7
10:50 1021 30.15 850 25.1 20.2 68.3 45 7.9 46.1
10:55 1021 30.15 850 25.1 20.4 68.7 45 8.1 46.5
11:00 1021 30.15 850 25.1 20.9 69.6 41 7.4 45.3
11:05 1021 30.15 850 25.1 21.6 70.8 41 7.9 46.2
11:10 1021 30.15 850 25.1 21.5 70.7 42 8.2 46.7
11:15 1021 30.15 850 25.1 21.7 71 40 7.7 45.8
11:20 1021 30.15 850 25.1 21.7 71.1 41 8 46.4
11:25 1021 30.15 850 25.1 22.6 72.6 38 7.6 45.8
11:30 1021 30.15 850 25.1 22.6 72.7 39 8.2 46.8
11:35 1021 30.15 850 25.1 22.5 72.6 40 8.6 47.5
11:40 1021 30.15 850 25.1 22.5 72.4 40 8.4 47.1
11:45 1021 30.15 850 25.1 22.3 72.1 39 7.8 46
11:50 1021 30.15 850 25.1 23 73.3 37 7.8 46
11:55 1021 30.15 850 25.1 23 73.4 38 8.2 46.8
12:00 1021 30.15 850 25.1 23.3 73.9 37 8 46.5
12:05 1021 30.15 850 25.1 23.6 74.4 37 8.2 46.8
12:10 1021 30.15 850 25.1 23.4 74.2 38 8.5 47.3
12:15 1021 30.15 850 25.1 23.7 74.7 37 8.4 47.1
12:20 1021 30.15 850 25.1 23.8 74.8 35 7.6 45.7
12:25 1021 30.15 850 25.1 23.9 75 35 7.7 45.9
12:30 1021 30.15 850 25.1 23.2 73.8 37 8.1 46.5
12:35 1021 30.15 850 25.1 23.5 74.3 37 8.4 47.1
12:40 1021 30.15 850 25.1 23.7 74.7 35 7.4 45.4
12:45 1021 30.15 850 25.1 23.9 75 34 7.5 45.4
12:50 1021 30.15 850 25.1 24.1 75.5 38 9 48.2
12:55 1021 30.15 850 25.1 24.3 75.7 36 8.6 47.5
13:00 1021 30.15 850 25.1 23.9 75 37 8.5 47.4
13:05 1021 30.15 850 25.1 24 75.2 35 7.7 45.8
13:10 1021 30.15 850 25.1 24.7 76.4 34 8 46.3
13:15 1021 30.15 850 25.1 24.4 76 34 8 46.4
13:20 1021 30.15 850 25.1 24.1 75.4 35 8.1 46.5
13:25 1020 30.12 850 25.1 24.4 75.9 35 8.2 46.8
13:30 1020 30.12 850 25.1 24.3 75.7 35 8.1 46.6
13:35 1020 30.12 850 25.1 23 73.3 39 8.5 47.4
13:40 1020 30.12 850 25.1 23 73.4 37 7.8 46
13:45 1020 30.12 850 25.1 24.3 75.8 35 7.9 46.3
13:50 1020 30.12 850 25.1 24.6 76.2 35 8.2 46.8
13:55 1020 30.12 850 25.1 24.5 76 35 8.1 46.6
14:00 1020 30.12 850 25.1 24.4 76 35 8.3 46.9
14:05 1020 30.12 850 25.1 24.1 75.4 35 8.1 46.6
14:10 1020 30.12 849 25.07 24.4 75.9 34 7.9 46.3
14:15 1020 30.12 849 25.07 24.7 76.5 34 8.2 46.8
14:20 1020 30.12 849 25.07 24.8 76.7 33 7.8 46
14:25 1020 30.12 849 25.07 24.7 76.5 33 7.8 46
14:30 1020 30.12 849 25.07 24.2 75.6 35 7.9 46.3
14:35 1020 30.12 849 25.07 24.4 75.9 35 8.3 46.9
14:40 1020 30.12 849 25.07 24.7 76.4 34 8 46.4
14:45 1020 30.12 849 25.07 25 77 33 8 46.4
14:50 1020 30.12 849 25.07 25.5 77.8 31 7.2 45
14:55 1020 30.12 849 25.07 25.3 77.6 33 8 46.4
15:00 1020 30.12 849 25.07 25.7 78.3 31 7.8 46
15:05 1020 30.12 849 25.07 26.1 79 31 7.9 46.2
15:10 1020 30.12 849 25.07 25.7 78.3 31 7.8 46
15:15 1020 30.12 849 25.07 25.6 78 29 6.6 43.9
15:20 1020 30.12 849 25.07 25.7 78.3 29 6.4 43.6
15:25 1020 30.12 849 25.07 25.9 78.5 30 7.1 44.8
15:30 1020 30.12 849 25.07 25.7 78.2 30 7.3 45.1
15:35 1020 30.12 849 25.07 26.2 79.2 29 7 44.6
15:40 1020 30.12 849 25.07 26.6 79.8 26 6 42.8
15:45 1020 30.12 849 25.07 26.1 78.9 30 7.2 44.9
15:50 1020 30.12 849 25.07 25.8 78.5 29 6.8 44.3
15:55 1020 30.12 849 25.07 25.6 78 28 6.2 43.2
16:00 1020 30.12 849 25.07 25.9 78.6 28 6.3 43.4
16:05 1020 30.12 849 25.07 26.1 79 29 6.7 44.1
16:10 1020 30.12 849 25.07 26.5 79.8 28 6.9 44.5
16:15 1020 30.12 849 25.07 26.6 79.8 28 6.6 43.8
16:20 1020 30.12 849 25.07 26.6 79.9 27 6.3 43.3
16:25 1020 30.12 849 25.07 26.8 80.2 26 6.1 42.9
16:30 1020 30.12 849 25.07 26.9 80.5 27 6.4 43.5
16:35 1020 30.12 849 25.07 27 80.7 26 6 42.8
16:40 1020 30.12 849 25.07 27.5 81.5 25 5.7 42.3
16:45 1020 30.12 849 25.07 27.5 81.5 24 5.6 42
16:50 1020 30.12 849 25.07 27.4 81.4 25 6.2 43.1
16:55 1020 30.12 849 25.07 27.1 80.7 25 5.6 42
17:00 1020 30.12 849 25.07 27.1 80.9 25 5.7 42.2
17:05 1019 30.09 849 25.07 27.5 81.5 23 4.8 40.7
17:10 1019 30.09 849 25.07 27.1 80.9 24 4.9 40.8
17:15 1019 30.09 849 25.07 27.4 81.2 23 4.8 40.7
17:20 1019 30.09 849 25.07 27.8 82 22 4.5 40.1
17:25 1019 30.09 849 25.07 27.3 81.2 23 4.9 40.9
17:30 1019 30.09 849 25.07 27.2 80.9 22 4.2 39.5
17:35 1019 30.09 849 25.07 27 80.6 23 4.2 39.5
17:40 1019 30.09 849 25.07 27.1 80.8 23 4.8 40.6
17:45 1019 30.09 849 25.07 27.4 81.3 22 3.8 38.9
17:50 1019 30.09 849 25.07 27.5 81.5 22 4.3 39.8
17:55 1019 30.09 849 25.07 26.7 80.1 22 3.7 38.6
18:00 1019 30.09 849 25.07 27 80.7 22 3.8 38.8
18:05 1019 30.09 849 25.07 27.2 81 21 3.1 37.6
18:10 1019 30.09 849 25.07 27.4 81.3 20 2.6 36.8
18:15 1019 30.09 848 25.04 27.4 81.4 21 3.8 38.8
18:20 1019 30.09 849 25.07 27.8 82 21 3.6 38.6
18:25 1019 30.09 848 25.04 27.6 81.6 21 3.5 38.4
18:30 1019 30.09 848 25.04 28 82.3 20 3.1 37.5
18:35 1019 30.09 848 25.04 28.1 82.6 18 2.1 35.8
18:40 1019 30.09 848 25.04 28.3 82.9 19 2.9 37.2
18:45 1019 30.09 848 25.04 28.6 83.4 21 4.4 39.9
18:50 1019 30.09 848 25.04 28.3 82.9 20 3.2 37.8
18:55 1019 30.09 848 25.04 28.3 83 19 2.5 36.6
19:00 1019 30.09 848 25.04 28.7 83.6 18 2.7 36.8
19:05 1019 30.09 848 25.04 28.6 83.5 18 2.4 36.3
19:10 1019 30.09 848 25.04 28.1 82.6 19 2.9 37.3
19:15 1019 30.09 848 25.04 27.9 82.2 19 2.8 37
19:20 1019 30.09 848 25.04 27.7 81.8 20 3.1 37.6
19:25 1019 30.09 848 25.04 27.2 81 21 3 37.3
19:30 1019 30.09 848 25.04 27.1 80.9 20 2.4 36.2
19:35 1019 30.09 848 25.04 27 80.5 19 1.7 35.1
19:40 1019 30.09 848 25.04 26.7 80.1 20 2.3 36.1
19:45 1019 30.09 848 25.04 26.6 79.9 19 1.7 35.1
19:50 1019 30.09 848 25.04 26.7 80 21 2.8 37
19:55 1019 30.09 848 25.04 26.6 79.9 25 5.1 41.1
20:00 1019 30.09 848 25.04 26.5 79.7 20 2.3 36.2
20:05 1019 30.09 848 25.04 26.5 79.6 21 2.9 37.2
20:10 1019 30.09 848 25.04 26.3 79.3 26 5.4 41.7
20:15 1019 30.09 848 25.04 25.9 78.5 29 6.8 44.2
20:20 1019 30.09 848 25.04 25.6 78 28 6.1 43
20:25 1019 30.09 848 25.04 25.3 77.6 28 6 42.7
20:30 1019 30.09 848 25.04 25.2 77.4 31 7.1 44.7
20:35 1019 30.09 848 25.04 25.1 77.2 29 6.3 43.3
20:40 1019 30.09 848 25.04 24.9 76.9 31 6.7 44
20:45 1019 30.09 848 25.04 24.7 76.5 31 6.5 43.7
20:50 1019 30.09 848 25.04 24.6 76.3 30 6.3 43.3
20:55 1019 30.09 848 25.04 24.2 75.6 34 7.5 45.5
21:00 1019 30.09 848 25.04 23.9 75.1 38 9.1 48.3
21:05 1019 30.09 848 25.04 23.5 74.3 39 8.8 47.8
21:10 1019 30.09 848 25.04 22.9 73.2 42 9.4 49
21:15 1019 30.09 848 25.04 22.5 72.6 44 10 50
21:20 1019 30.09 848 25.04 22.1 71.7 44 9.3 48.7
21:25 1019 30.09 848 25.04 21.5 70.6 47 9.8 49.7
21:30 1019 30.09 848 25.04 21.1 69.9 47 9.4 49
21:35 1019 30.09 848 25.04 20.9 69.7 49 10.1 50.2
21:40 1019 30.09 849 25.07 20.6 69.1 51 10.4 50.8
21:45 1019 30.09 849 25.07 20.3 68.5 51 10.1 50.2
21:50 1020 30.12 849 25.07 20.1 68.2 49 9.2 48.6
21:55 1020 30.12 849 25.07 20.4 68.8 44 8.1 46.5
22:00 1020 30.12 849 25.07 20.6 69.1 42 7.4 45.4
22:05 1020 30.12 849 25.07 20.6 69.1 41 6.9 44.5
22:10 1020 30.12 849 25.07 20.7 69.2 45 8.6 47.5
22:15 1020 30.12 849 25.07 20.4 68.7 42 7.2 44.9
22:20 1020 30.12 849 25.07 20.3 68.5 42 7.3 45.1
22:25 1020 30.12 849 25.07 20.2 68.3 44 7.7 45.8
22:30 1020 30.12 849 25.07 19.9 67.8 44 7.4 45.3
22:35 1020 30.12 849 25.07 20 68 40 6.1 43
22:40 1020 30.12 849 25.07 20.4 68.6 39 6.2 43.2
22:45 1020 30.12 849 25.07 20.3 68.5 40 6.5 43.8
22:50 1020 30.12 849 25.07 20.2 68.3 41 6.5 43.7
22:55 1020 30.12 849 25.07 20.1 68.1 41 6.6 43.9
23:00 1020 30.12 849 25.07 20.2 68.4 41 6.6 43.9
23:05 1020 30.12 849 25.07 20.3 68.5 40 6.4 43.4
23:10 1020 30.12 849 25.07 20.5 68.9 43 7.5 45.5
23:15 1020 30.12 850 25.1 20 68 41 6.4 43.6
23:20 1020 30.12 850 25.1 20 68.1 43 7.1 44.8
23:25 1020 30.12 850 25.1 19.7 67.5 42 6.7 44
23:30 1020 30.12 850 25.1 19.4 67 43 6.6 43.9
23:35 1020 30.12 850 25.1 19.2 66.6 45 7.1 44.8
23:40 1020 30.12 850 25.1 18.9 66.1 47 7.4 45.4
23:45 1020 30.12 850 25.1 18.7 65.7 47 7.3 45.2
23:50 1020 30.12 850 25.1 18.7 65.6 47 7.3 45.1
23:55 1020 30.12 850 25.1 18.7 65.6 46 7.1 44.8
24:00 1020 30.12 849 25.07 18.7 65.7 46 7 44.5